sensor_id;sensor_type;location;lat;lon;timestamp;P1;durP1;ratioP1;P2;durP2;ratioP2
24102;SDS011;12278;53.058;9.028;2023-05-25T00:01:44;10.50;;;7.82;;
24102;SDS011;12278;53.058;9.028;2023-05-25T00:05:48;14.73;;;8.07;;
24102;SDS011;12278;53.058;9.028;2023-05-25T00:09:49;9.70;;;7.88;;
24102;SDS011;12278;53.058;9.028;2023-05-25T00:17:53;15.63;;;8.45;;
24102;SDS011;12278;53.058;9.028;2023-05-25T00:21:54;15.00;;;9.38;;
24102;SDS011;12278;53.058;9.028;2023-05-25T00:25:54;18.23;;;8.25;;
24102;SDS011;12278;53.058;9.028;2023-05-25T00:29:55;15.80;;;9.48;;
24102;SDS011;12278;53.058;9.028;2023-05-25T00:33:56;11.13;;;7.55;;
24102;SDS011;12278;53.058;9.028;2023-05-25T00:37:56;10.88;;;7.32;;
24102;SDS011;12278;53.058;9.028;2023-05-25T00:41:57;11.60;;;7.13;;
24102;SDS011;12278;53.058;9.028;2023-05-25T00:45:59;12.55;;;7.00;;
24102;SDS011;12278;53.058;9.028;2023-05-25T00:50:00;10.63;;;7.47;;
24102;SDS011;12278;53.058;9.028;2023-05-25T00:54:01;15.68;;;6.93;;
24102;SDS011;12278;53.058;9.028;2023-05-25T00:58:02;12.55;;;6.65;;
24102;SDS011;12278;53.058;9.028;2023-05-25T01:02:06;9.57;;;5.95;;
24102;SDS011;12278;53.058;9.028;2023-05-25T01:06:10;11.50;;;6.15;;
24102;SDS011;12278;53.058;9.028;2023-05-25T01:10:13;12.07;;;7.32;;
24102;SDS011;12278;53.058;9.028;2023-05-25T01:14:17;12.25;;;6.47;;
24102;SDS011;12278;53.058;9.028;2023-05-25T01:18:20;12.45;;;6.47;;
24102;SDS011;12278;53.058;9.028;2023-05-25T01:22:32;12.68;;;6.75;;
24102;SDS011;12278;53.058;9.028;2023-05-25T01:26:41;13.40;;;6.82;;
24102;SDS011;12278;53.058;9.028;2023-05-25T01:30:46;10.25;;;5.90;;
24102;SDS011;12278;53.058;9.028;2023-05-25T01:34:48;13.57;;;7.97;;
24102;SDS011;12278;53.058;9.028;2023-05-25T01:38:50;15.45;;;7.25;;
24102;SDS011;12278;53.058;9.028;2023-05-25T01:42:51;13.27;;;6.40;;
24102;SDS011;12278;53.058;9.028;2023-05-25T01:46:52;14.18;;;6.32;;
24102;SDS011;12278;53.058;9.028;2023-05-25T01:51:19;10.77;;;6.60;;
24102;SDS011;12278;53.058;9.028;2023-05-25T01:55:54;14.05;;;6.63;;
24102;SDS011;12278;53.058;9.028;2023-05-25T01:59:57;9.25;;;6.13;;
24102;SDS011;12278;53.058;9.028;2023-05-25T02:04:02;15.95;;;5.88;;
24102;SDS011;12278;53.058;9.028;2023-05-25T02:08:03;20.30;;;6.53;;
24102;SDS011;12278;53.058;9.028;2023-05-25T02:12:10;11.77;;;7.57;;
24102;SDS011;12278;53.058;9.028;2023-05-25T02:16:11;13.32;;;6.70;;
24102;SDS011;12278;53.058;9.028;2023-05-25T02:20:12;9.40;;;6.70;;
24102;SDS011;12278;53.058;9.028;2023-05-25T02:24:12;9.00;;;5.90;;
24102;SDS011;12278;53.058;9.028;2023-05-25T02:28:13;8.80;;;5.80;;
24102;SDS011;12278;53.058;9.028;2023-05-25T02:32:14;10.50;;;6.20;;
24102;SDS011;12278;53.058;9.028;2023-05-25T02:36:15;12.30;;;5.85;;
24102;SDS011;12278;53.058;9.028;2023-05-25T02:40:16;11.38;;;5.82;;
24102;SDS011;12278;53.058;9.028;2023-05-25T02:44:16;11.48;;;6.30;;
24102;SDS011;12278;53.058;9.028;2023-05-25T02:48:17;10.38;;;5.95;;
24102;SDS011;12278;53.058;9.028;2023-05-25T02:52:17;9.85;;;6.38;;
24102;SDS011;12278;53.058;9.028;2023-05-25T02:56:18;10.20;;;6.47;;
24102;SDS011;12278;53.058;9.028;2023-05-25T03:00:20;15.23;;;6.70;;
24102;SDS011;12278;53.058;9.028;2023-05-25T03:04:21;9.90;;;5.97;;
24102;SDS011;12278;53.058;9.028;2023-05-25T03:08:21;9.18;;;5.97;;
24102;SDS011;12278;53.058;9.028;2023-05-25T03:12:22;7.68;;;5.82;;
24102;SDS011;12278;53.058;9.028;2023-05-25T03:16:23;13.73;;;6.90;;
24102;SDS011;12278;53.058;9.028;2023-05-25T03:20:24;9.80;;;6.43;;
24102;SDS011;12278;53.058;9.028;2023-05-25T03:24:27;16.77;;;7.07;;
24102;SDS011;12278;53.058;9.028;2023-05-25T03:28:27;10.75;;;6.57;;
24102;SDS011;12278;53.058;9.028;2023-05-25T03:32:28;26.38;;;7.07;;
24102;SDS011;12278;53.058;9.028;2023-05-25T03:36:28;12.52;;;5.88;;
24102;SDS011;12278;53.058;9.028;2023-05-25T03:44:38;10.88;;;6.55;;
24102;SDS011;12278;53.058;9.028;2023-05-25T03:48:38;13.75;;;7.55;;
24102;SDS011;12278;53.058;9.028;2023-05-25T03:52:39;19.30;;;8.18;;
24102;SDS011;12278;53.058;9.028;2023-05-25T03:56:40;16.33;;;8.25;;
24102;SDS011;12278;53.058;9.028;2023-05-25T04:00:41;15.70;;;9.75;;
24102;SDS011;12278;53.058;9.028;2023-05-25T04:04:41;14.18;;;8.45;;
24102;SDS011;12278;53.058;9.028;2023-05-25T04:08:43;16.05;;;8.45;;
24102;SDS011;12278;53.058;9.028;2023-05-25T04:12:44;22.95;;;9.57;;
24102;SDS011;12278;53.058;9.028;2023-05-25T04:16:47;14.77;;;8.88;;
24102;SDS011;12278;53.058;9.028;2023-05-25T04:20:47;16.33;;;8.98;;
24102;SDS011;12278;53.058;9.028;2023-05-25T04:24:48;15.02;;;9.18;;
24102;SDS011;12278;53.058;9.028;2023-05-25T04:28:49;12.00;;;7.47;;
24102;SDS011;12278;53.058;9.028;2023-05-25T04:32:49;18.25;;;9.18;;
24102;SDS011;12278;53.058;9.028;2023-05-25T04:36:50;12.75;;;8.07;;
24102;SDS011;12278;53.058;9.028;2023-05-25T04:40:51;12.25;;;6.90;;
24102;SDS011;12278;53.058;9.028;2023-05-25T04:44:57;13.75;;;8.05;;
24102;SDS011;12278;53.058;9.028;2023-05-25T04:49:05;10.30;;;7.38;;
24102;SDS011;12278;53.058;9.028;2023-05-25T04:53:07;17.15;;;7.43;;
24102;SDS011;12278;53.058;9.028;2023-05-25T04:57:08;11.63;;;7.90;;
24102;SDS011;12278;53.058;9.028;2023-05-25T05:01:08;13.10;;;7.47;;
24102;SDS011;12278;53.058;9.028;2023-05-25T05:05:09;15.80;;;7.80;;
24102;SDS011;12278;53.058;9.028;2023-05-25T05:09:11;13.50;;;7.40;;
24102;SDS011;12278;53.058;9.028;2023-05-25T05:13:12;12.95;;;7.05;;
24102;SDS011;12278;53.058;9.028;2023-05-25T05:17:13;14.70;;;6.97;;
24102;SDS011;12278;53.058;9.028;2023-05-25T05:21:13;12.27;;;7.60;;
24102;SDS011;12278;53.058;9.028;2023-05-25T05:25:15;11.77;;;6.25;;
24102;SDS011;12278;53.058;9.028;2023-05-25T05:29:18;13.95;;;7.00;;
24102;SDS011;12278;53.058;9.028;2023-05-25T05:33:19;10.82;;;7.15;;
24102;SDS011;12278;53.058;9.028;2023-05-25T05:37:20;16.15;;;6.68;;
24102;SDS011;12278;53.058;9.028;2023-05-25T05:41:20;10.05;;;6.10;;
24102;SDS011;12278;53.058;9.028;2023-05-25T05:45:22;13.90;;;6.50;;
24102;SDS011;12278;53.058;9.028;2023-05-25T05:49:22;11.02;;;6.30;;
24102;SDS011;12278;53.058;9.028;2023-05-25T05:53:23;11.25;;;7.10;;
24102;SDS011;12278;53.058;9.028;2023-05-25T05:57:23;12.80;;;6.97;;
24102;SDS011;12278;53.058;9.028;2023-05-25T06:01:24;10.70;;;5.70;;
24102;SDS011;12278;53.058;9.028;2023-05-25T06:05:25;8.63;;;5.72;;
24102;SDS011;12278;53.058;9.028;2023-05-25T06:09:25;10.25;;;5.70;;
24102;SDS011;12278;53.058;9.028;2023-05-25T06:13:26;10.95;;;6.40;;
24102;SDS011;12278;53.058;9.028;2023-05-25T06:17:28;13.95;;;6.15;;
24102;SDS011;12278;53.058;9.028;2023-05-25T06:21:29;11.55;;;5.70;;
24102;SDS011;12278;53.058;9.028;2023-05-25T06:25:30;10.93;;;5.40;;
24102;SDS011;12278;53.058;9.028;2023-05-25T06:29:30;10.90;;;5.28;;
24102;SDS011;12278;53.058;9.028;2023-05-25T06:33:31;11.38;;;5.28;;
24102;SDS011;12278;53.058;9.028;2023-05-25T06:37:31;8.88;;;5.95;;
24102;SDS011;12278;53.058;9.028;2023-05-25T06:41:35;12.45;;;6.15;;
24102;SDS011;12278;53.058;9.028;2023-05-25T06:45:37;8.23;;;5.45;;
24102;SDS011;12278;53.058;9.028;2023-05-25T06:49:37;9.48;;;5.25;;
24102;SDS011;12278;53.058;9.028;2023-05-25T06:53:38;11.82;;;5.03;;
24102;SDS011;12278;53.058;9.028;2023-05-25T06:57:39;12.07;;;6.00;;
24102;SDS011;12278;53.058;9.028;2023-05-25T07:01:48;10.27;;;5.63;;
24102;SDS011;12278;53.058;9.028;2023-05-25T07:05:49;8.52;;;5.88;;
24102;SDS011;12278;53.058;9.028;2023-05-25T07:09:49;9.02;;;5.10;;
24102;SDS011;12278;53.058;9.028;2023-05-25T07:13:50;13.60;;;5.57;;
24102;SDS011;12278;53.058;9.028;2023-05-25T07:17:51;9.52;;;5.32;;
24102;SDS011;12278;53.058;9.028;2023-05-25T07:21:51;14.75;;;5.10;;
24102;SDS011;12278;53.058;9.028;2023-05-25T07:25:52;10.65;;;5.68;;
24102;SDS011;12278;53.058;9.028;2023-05-25T07:29:52;10.15;;;4.82;;
24102;SDS011;12278;53.058;9.028;2023-05-25T07:33:53;7.68;;;4.90;;
24102;SDS011;12278;53.058;9.028;2023-05-25T07:37:55;6.97;;;3.78;;
24102;SDS011;12278;53.058;9.028;2023-05-25T07:41:59;8.95;;;3.42;;
24102;SDS011;12278;53.058;9.028;2023-05-25T07:46:01;6.50;;;3.75;;
24102;SDS011;12278;53.058;9.028;2023-05-25T07:50:02;9.18;;;4.03;;
24102;SDS011;12278;53.058;9.028;2023-05-25T07:54:02;6.75;;;3.58;;
24102;SDS011;12278;53.058;9.028;2023-05-25T07:58:03;7.85;;;4.22;;
24102;SDS011;12278;53.058;9.028;2023-05-25T08:02:06;12.48;;;5.38;;
24102;SDS011;12278;53.058;9.028;2023-05-25T08:06:06;6.70;;;3.83;;
24102;SDS011;12278;53.058;9.028;2023-05-25T08:10:07;8.20;;;3.83;;
24102;SDS011;12278;53.058;9.028;2023-05-25T08:14:08;11.02;;;3.72;;
24102;SDS011;12278;53.058;9.028;2023-05-25T08:18:09;7.30;;;4.47;;
24102;SDS011;12278;53.058;9.028;2023-05-25T08:22:09;12.43;;;4.18;;
24102;SDS011;12278;53.058;9.028;2023-05-25T08:26:10;14.93;;;4.50;;
24102;SDS011;12278;53.058;9.028;2023-05-25T08:30:11;7.07;;;4.00;;
24102;SDS011;12278;53.058;9.028;2023-05-25T08:34:11;9.57;;;3.53;;
24102;SDS011;12278;53.058;9.028;2023-05-25T08:38:12;8.02;;;3.15;;
24102;SDS011;12278;53.058;9.028;2023-05-25T08:42:12;8.93;;;3.85;;
24102;SDS011;12278;53.058;9.028;2023-05-25T08:46:13;6.60;;;3.42;;
24102;SDS011;12278;53.058;9.028;2023-05-25T08:50:15;8.75;;;4.07;;
24102;SDS011;12278;53.058;9.028;2023-05-25T08:54:23;9.95;;;3.97;;
24102;SDS011;12278;53.058;9.028;2023-05-25T08:58:33;12.45;;;4.80;;
24102;SDS011;12278;53.058;9.028;2023-05-25T09:06:54;7.13;;;3.78;;
24102;SDS011;12278;53.058;9.028;2023-05-25T09:10:56;8.30;;;3.72;;
24102;SDS011;12278;53.058;9.028;2023-05-25T09:14:57;11.95;;;3.35;;
24102;SDS011;12278;53.058;9.028;2023-05-25T09:18:58;8.00;;;3.50;;
24102;SDS011;12278;53.058;9.028;2023-05-25T09:23:00;9.38;;;3.92;;
24102;SDS011;12278;53.058;9.028;2023-05-25T09:27:02;7.22;;;3.33;;
24102;SDS011;12278;53.058;9.028;2023-05-25T09:31:02;10.32;;;3.85;;
24102;SDS011;12278;53.058;9.028;2023-05-25T09:39:09;9.30;;;4.22;;
24102;SDS011;12278;53.058;9.028;2023-05-25T09:43:11;13.25;;;3.83;;
24102;SDS011;12278;53.058;9.028;2023-05-25T09:47:12;7.95;;;4.25;;
24102;SDS011;12278;53.058;9.028;2023-05-25T09:51:15;13.00;;;4.35;;
24102;SDS011;12278;53.058;9.028;2023-05-25T09:55:16;11.57;;;4.68;;
24102;SDS011;12278;53.058;9.028;2023-05-25T09:59:16;15.57;;;4.95;;
24102;SDS011;12278;53.058;9.028;2023-05-25T10:03:17;14.20;;;4.05;;
24102;SDS011;12278;53.058;9.028;2023-05-25T10:07:20;12.55;;;3.80;;
24102;SDS011;12278;53.058;9.028;2023-05-25T10:11:21;12.88;;;4.72;;
24102;SDS011;12278;53.058;9.028;2023-05-25T10:15:23;11.90;;;4.10;;
24102;SDS011;12278;53.058;9.028;2023-05-25T10:19:34;11.85;;;4.28;;
24102;SDS011;12278;53.058;9.028;2023-05-25T10:23:43;10.05;;;3.55;;
24102;SDS011;12278;53.058;9.028;2023-05-25T10:27:46;13.18;;;4.57;;
24102;SDS011;12278;53.058;9.028;2023-05-25T10:31:52;11.32;;;4.30;;
24102;SDS011;12278;53.058;9.028;2023-05-25T10:35:54;11.75;;;4.13;;
24102;SDS011;12278;53.058;9.028;2023-05-25T11:00:02;13.48;;;5.00;;
24102;SDS011;12278;53.058;9.028;2023-05-25T11:08:11;11.75;;;5.05;;
24102;SDS011;12278;53.058;9.028;2023-05-25T11:12:19;14.38;;;4.53;;
24102;SDS011;12278;53.058;9.028;2023-05-25T11:20:33;17.23;;;4.80;;
24102;SDS011;12278;53.058;9.028;2023-05-25T11:24:34;13.52;;;5.13;;
24102;SDS011;12278;53.058;9.028;2023-05-25T11:28:42;15.30;;;5.07;;
24102;SDS011;12278;53.058;9.028;2023-05-25T11:32:49;15.75;;;5.00;;
24102;SDS011;12278;53.058;9.028;2023-05-25T11:36:52;15.88;;;4.72;;
24102;SDS011;12278;53.058;9.028;2023-05-25T11:40:56;12.40;;;4.35;;
24102;SDS011;12278;53.058;9.028;2023-05-25T11:45:00;20.73;;;5.85;;
24102;SDS011;12278;53.058;9.028;2023-05-25T11:49:02;18.45;;;4.97;;
24102;SDS011;12278;53.058;9.028;2023-05-25T11:53:05;12.93;;;4.38;;
24102;SDS011;12278;53.058;9.028;2023-05-25T11:57:19;15.13;;;5.05;;
24102;SDS011;12278;53.058;9.028;2023-05-25T12:01:24;18.08;;;5.40;;
24102;SDS011;12278;53.058;9.028;2023-05-25T12:05:35;10.45;;;4.13;;
24102;SDS011;12278;53.058;9.028;2023-05-25T12:09:37;16.05;;;5.47;;
24102;SDS011;12278;53.058;9.028;2023-05-25T12:13:40;16.33;;;5.05;;
24102;SDS011;12278;53.058;9.028;2023-05-25T12:17:42;20.63;;;5.35;;
24102;SDS011;12278;53.058;9.028;2023-05-25T12:21:43;16.08;;;4.82;;
24102;SDS011;12278;53.058;9.028;2023-05-25T12:25:44;15.18;;;5.57;;
24102;SDS011;12278;53.058;9.028;2023-05-25T12:29:45;15.50;;;5.35;;
24102;SDS011;12278;53.058;9.028;2023-05-25T12:33:46;11.20;;;5.40;;
24102;SDS011;12278;53.058;9.028;2023-05-25T12:38:10;25.48;;;5.75;;
24102;SDS011;12278;53.058;9.028;2023-05-25T12:42:16;13.48;;;4.40;;
24102;SDS011;12278;53.058;9.028;2023-05-25T12:46:23;14.77;;;5.30;;
24102;SDS011;12278;53.058;9.028;2023-05-25T12:50:24;12.80;;;4.82;;
24102;SDS011;12278;53.058;9.028;2023-05-25T12:54:35;17.52;;;5.20;;
24102;SDS011;12278;53.058;9.028;2023-05-25T12:58:40;12.73;;;5.28;;
24102;SDS011;12278;53.058;9.028;2023-05-25T13:02:42;12.48;;;5.28;;
24102;SDS011;12278;53.058;9.028;2023-05-25T13:06:44;16.48;;;4.38;;
24102;SDS011;12278;53.058;9.028;2023-05-25T13:10:44;14.35;;;5.07;;
24102;SDS011;12278;53.058;9.028;2023-05-25T13:14:50;10.80;;;4.20;;
24102;SDS011;12278;53.058;9.028;2023-05-25T13:18:50;15.43;;;5.13;;
24102;SDS011;12278;53.058;9.028;2023-05-25T13:22:51;17.35;;;4.85;;
24102;SDS011;12278;53.058;9.028;2023-05-25T13:26:52;12.25;;;5.13;;
24102;SDS011;12278;53.058;9.028;2023-05-25T13:34:57;15.88;;;5.28;;
24102;SDS011;12278;53.058;9.028;2023-05-25T13:38:59;11.88;;;4.88;;
24102;SDS011;12278;53.058;9.028;2023-05-25T13:43:00;17.08;;;5.15;;
24102;SDS011;12278;53.058;9.028;2023-05-25T13:47:01;15.88;;;5.10;;
24102;SDS011;12278;53.058;9.028;2023-05-25T13:51:01;15.90;;;6.05;;
24102;SDS011;12278;53.058;9.028;2023-05-25T13:55:03;15.48;;;5.03;;
24102;SDS011;12278;53.058;9.028;2023-05-25T13:59:04;13.57;;;5.28;;
24102;SDS011;12278;53.058;9.028;2023-05-25T14:03:05;16.75;;;5.32;;
24102;SDS011;12278;53.058;9.028;2023-05-25T14:07:06;17.55;;;5.38;;
24102;SDS011;12278;53.058;9.028;2023-05-25T14:11:13;15.63;;;4.70;;
24102;SDS011;12278;53.058;9.028;2023-05-25T14:15:14;10.32;;;4.72;;
24102;SDS011;12278;53.058;9.028;2023-05-25T14:19:15;14.20;;;5.00;;
24102;SDS011;12278;53.058;9.028;2023-05-25T14:23:18;13.05;;;4.75;;
24102;SDS011;12278;53.058;9.028;2023-05-25T14:27:18;14.40;;;4.82;;
24102;SDS011;12278;53.058;9.028;2023-05-25T14:31:20;14.02;;;5.88;;
24102;SDS011;12278;53.058;9.028;2023-05-25T14:35:20;13.18;;;5.30;;
24102;SDS011;12278;53.058;9.028;2023-05-25T14:39:22;17.25;;;4.68;;
24102;SDS011;12278;53.058;9.028;2023-05-25T14:43:23;12.20;;;4.50;;
24102;SDS011;12278;53.058;9.028;2023-05-25T14:47:23;9.00;;;4.53;;
24102;SDS011;12278;53.058;9.028;2023-05-25T14:51:24;18.02;;;5.20;;
24102;SDS011;12278;53.058;9.028;2023-05-25T14:55:25;17.27;;;5.63;;
24102;SDS011;12278;53.058;9.028;2023-05-25T14:59:25;16.58;;;4.97;;
24102;SDS011;12278;53.058;9.028;2023-05-25T15:03:26;14.13;;;4.82;;
24102;SDS011;12278;53.058;9.028;2023-05-25T15:07:27;13.98;;;4.70;;
24102;SDS011;12278;53.058;9.028;2023-05-25T15:11:27;14.52;;;4.95;;
24102;SDS011;12278;53.058;9.028;2023-05-25T15:15:28;10.57;;;3.90;;
24102;SDS011;12278;53.058;9.028;2023-05-25T15:19:28;12.07;;;4.20;;
24102;SDS011;12278;53.058;9.028;2023-05-25T15:23:29;16.10;;;5.40;;
24102;SDS011;12278;53.058;9.028;2023-05-25T15:27:30;17.27;;;4.43;;
24102;SDS011;12278;53.058;9.028;2023-05-25T15:31:31;12.65;;;5.07;;
24102;SDS011;12278;53.058;9.028;2023-05-25T15:35:31;22.30;;;5.78;;
24102;SDS011;12278;53.058;9.028;2023-05-25T15:39:33;14.55;;;4.55;;
24102;SDS011;12278;53.058;9.028;2023-05-25T15:43:34;13.00;;;4.95;;
24102;SDS011;12278;53.058;9.028;2023-05-25T15:47:34;13.60;;;5.32;;
24102;SDS011;12278;53.058;9.028;2023-05-25T15:51:41;11.90;;;4.70;;
24102;SDS011;12278;53.058;9.028;2023-05-25T15:55:43;14.95;;;5.40;;
24102;SDS011;12278;53.058;9.028;2023-05-25T15:59:43;13.25;;;4.50;;
24102;SDS011;12278;53.058;9.028;2023-05-25T16:03:44;11.88;;;4.45;;
24102;SDS011;12278;53.058;9.028;2023-05-25T16:07:44;15.23;;;4.78;;
24102;SDS011;12278;53.058;9.028;2023-05-25T16:11:45;13.60;;;5.45;;
24102;SDS011;12278;53.058;9.028;2023-05-25T16:15:45;15.77;;;5.28;;
24102;SDS011;12278;53.058;9.028;2023-05-25T16:19:46;12.20;;;4.30;;
24102;SDS011;12278;53.058;9.028;2023-05-25T16:23:47;16.23;;;5.22;;
24102;SDS011;12278;53.058;9.028;2023-05-25T16:27:47;14.95;;;4.63;;
24102;SDS011;12278;53.058;9.028;2023-05-25T16:31:48;14.77;;;4.68;;
24102;SDS011;12278;53.058;9.028;2023-05-25T16:35:48;17.60;;;5.05;;
24102;SDS011;12278;53.058;9.028;2023-05-25T16:39:49;13.60;;;4.20;;
24102;SDS011;12278;53.058;9.028;2023-05-25T16:43:52;13.85;;;5.10;;
24102;SDS011;12278;53.058;9.028;2023-05-25T16:47:52;13.15;;;4.68;;
24102;SDS011;12278;53.058;9.028;2023-05-25T16:51:53;13.48;;;4.80;;
24102;SDS011;12278;53.058;9.028;2023-05-25T16:55:53;17.67;;;5.50;;
24102;SDS011;12278;53.058;9.028;2023-05-25T16:59:54;13.38;;;3.72;;
24102;SDS011;12278;53.058;9.028;2023-05-25T17:03:54;16.17;;;4.53;;
24102;SDS011;12278;53.058;9.028;2023-05-25T17:07:56;19.08;;;4.85;;
24102;SDS011;12278;53.058;9.028;2023-05-25T17:11:57;15.68;;;4.65;;
24102;SDS011;12278;53.058;9.028;2023-05-25T17:15:59;19.70;;;5.35;;
24102;SDS011;12278;53.058;9.028;2023-05-25T17:20:00;15.88;;;4.75;;
24102;SDS011;12278;53.058;9.028;2023-05-25T17:24:01;11.63;;;3.90;;
24102;SDS011;12278;53.058;9.028;2023-05-25T17:28:02;10.43;;;4.47;;
24102;SDS011;12278;53.058;9.028;2023-05-25T17:32:03;13.18;;;5.18;;
24102;SDS011;12278;53.058;9.028;2023-05-25T17:36:03;20.20;;;5.47;;
24102;SDS011;12278;53.058;9.028;2023-05-25T17:40:07;22.60;;;4.20;;
24102;SDS011;12278;53.058;9.028;2023-05-25T17:44:07;20.05;;;5.00;;
24102;SDS011;12278;53.058;9.028;2023-05-25T17:48:08;16.40;;;5.05;;
24102;SDS011;12278;53.058;9.028;2023-05-25T17:52:09;19.80;;;5.05;;
24102;SDS011;12278;53.058;9.028;2023-05-25T17:56:09;16.80;;;4.45;;
24102;SDS011;12278;53.058;9.028;2023-05-25T18:00:10;18.73;;;4.88;;
24102;SDS011;12278;53.058;9.028;2023-05-25T18:04:11;15.23;;;4.47;;
24102;SDS011;12278;53.058;9.028;2023-05-25T18:08:12;14.60;;;5.10;;
24102;SDS011;12278;53.058;9.028;2023-05-25T18:12:12;16.23;;;4.22;;
24102;SDS011;12278;53.058;9.028;2023-05-25T18:16:13;16.45;;;5.30;;
24102;SDS011;12278;53.058;9.028;2023-05-25T18:20:14;14.75;;;4.50;;
24102;SDS011;12278;53.058;9.028;2023-05-25T18:24:14;18.92;;;5.75;;
24102;SDS011;12278;53.058;9.028;2023-05-25T18:28:15;19.52;;;4.90;;
24102;SDS011;12278;53.058;9.028;2023-05-25T18:32:15;14.40;;;5.13;;
24102;SDS011;12278;53.058;9.028;2023-05-25T18:36:16;20.30;;;5.18;;
24102;SDS011;12278;53.058;9.028;2023-05-25T18:40:17;18.73;;;4.97;;
24102;SDS011;12278;53.058;9.028;2023-05-25T18:44:18;14.75;;;4.68;;
24102;SDS011;12278;53.058;9.028;2023-05-25T18:48:18;16.08;;;4.82;;
24102;SDS011;12278;53.058;9.028;2023-05-25T18:52:19;16.00;;;5.03;;
24102;SDS011;12278;53.058;9.028;2023-05-25T18:56:19;20.92;;;4.65;;
24102;SDS011;12278;53.058;9.028;2023-05-25T19:00:21;15.82;;;5.55;;
24102;SDS011;12278;53.058;9.028;2023-05-25T19:04:22;16.30;;;5.30;;
24102;SDS011;12278;53.058;9.028;2023-05-25T19:08:29;24.05;;;4.28;;
24102;SDS011;12278;53.058;9.028;2023-05-25T19:12:30;16.77;;;4.32;;
24102;SDS011;12278;53.058;9.028;2023-05-25T19:16:30;17.63;;;4.85;;
24102;SDS011;12278;53.058;9.028;2023-05-25T19:20:31;15.90;;;4.50;;
24102;SDS011;12278;53.058;9.028;2023-05-25T19:24:31;18.40;;;4.45;;
24102;SDS011;12278;53.058;9.028;2023-05-25T19:28:32;20.15;;;4.97;;
24102;SDS011;12278;53.058;9.028;2023-05-25T19:32:33;12.23;;;4.00;;
24102;SDS011;12278;53.058;9.028;2023-05-25T19:36:34;17.83;;;4.28;;
24102;SDS011;12278;53.058;9.028;2023-05-25T19:40:35;16.50;;;4.55;;
24102;SDS011;12278;53.058;9.028;2023-05-25T19:44:36;16.42;;;4.97;;
24102;SDS011;12278;53.058;9.028;2023-05-25T19:48:39;14.95;;;4.43;;
24102;SDS011;12278;53.058;9.028;2023-05-25T19:52:40;14.95;;;4.07;;
24102;SDS011;12278;53.058;9.028;2023-05-25T19:56:41;15.55;;;4.75;;
24102;SDS011;12278;53.058;9.028;2023-05-25T20:00:41;18.38;;;6.18;;
24102;SDS011;12278;53.058;9.028;2023-05-25T20:04:42;15.52;;;4.57;;
24102;SDS011;12278;53.058;9.028;2023-05-25T20:08:46;19.48;;;5.18;;
24102;SDS011;12278;53.058;9.028;2023-05-25T20:12:46;16.83;;;4.40;;
24102;SDS011;12278;53.058;9.028;2023-05-25T20:16:47;22.08;;;4.63;;
24102;SDS011;12278;53.058;9.028;2023-05-25T20:20:48;16.40;;;4.05;;
24102;SDS011;12278;53.058;9.028;2023-05-25T20:24:49;21.70;;;4.90;;
24102;SDS011;12278;53.058;9.028;2023-05-25T20:28:52;13.07;;;3.90;;
24102;SDS011;12278;53.058;9.028;2023-05-25T20:32:52;13.05;;;4.35;;
24102;SDS011;12278;53.058;9.028;2023-05-25T20:36:53;17.58;;;4.80;;
24102;SDS011;12278;53.058;9.028;2023-05-25T20:40:53;15.45;;;5.97;;
24102;SDS011;12278;53.058;9.028;2023-05-25T20:44:54;13.00;;;4.70;;
24102;SDS011;12278;53.058;9.028;2023-05-25T20:48:54;13.13;;;3.58;;
24102;SDS011;12278;53.058;9.028;2023-05-25T20:52:57;15.23;;;5.05;;
24102;SDS011;12278;53.058;9.028;2023-05-25T20:56:57;13.27;;;4.80;;
24102;SDS011;12278;53.058;9.028;2023-05-25T21:01:00;12.38;;;4.28;;
24102;SDS011;12278;53.058;9.028;2023-05-25T21:05:01;20.17;;;4.30;;
24102;SDS011;12278;53.058;9.028;2023-05-25T21:09:02;13.30;;;4.35;;
24102;SDS011;12278;53.058;9.028;2023-05-25T21:13:03;19.15;;;5.05;;
24102;SDS011;12278;53.058;9.028;2023-05-25T21:17:03;18.27;;;5.15;;
24102;SDS011;12278;53.058;9.028;2023-05-25T21:21:04;22.02;;;5.88;;
24102;SDS011;12278;53.058;9.028;2023-05-25T21:25:05;16.00;;;4.70;;
24102;SDS011;12278;53.058;9.028;2023-05-25T21:29:06;16.83;;;4.57;;
24102;SDS011;12278;53.058;9.028;2023-05-25T21:33:06;13.98;;;4.05;;
24102;SDS011;12278;53.058;9.028;2023-05-25T21:37:07;22.42;;;4.60;;
24102;SDS011;12278;53.058;9.028;2023-05-25T21:41:08;21.95;;;5.40;;
24102;SDS011;12278;53.058;9.028;2023-05-25T21:45:08;18.15;;;4.80;;
24102;SDS011;12278;53.058;9.028;2023-05-25T21:49:09;16.25;;;4.68;;
24102;SDS011;12278;53.058;9.028;2023-05-25T21:53:10;14.23;;;4.80;;
24102;SDS011;12278;53.058;9.028;2023-05-25T21:57:10;24.80;;;4.63;;
24102;SDS011;12278;53.058;9.028;2023-05-25T22:01:11;18.00;;;4.85;;
24102;SDS011;12278;53.058;9.028;2023-05-25T22:05:11;15.82;;;4.32;;
24102;SDS011;12278;53.058;9.028;2023-05-25T22:09:14;14.15;;;4.03;;
24102;SDS011;12278;53.058;9.028;2023-05-25T22:13:16;19.48;;;4.35;;
24102;SDS011;12278;53.058;9.028;2023-05-25T22:17:16;14.07;;;4.28;;
24102;SDS011;12278;53.058;9.028;2023-05-25T22:21:17;15.02;;;4.25;;
24102;SDS011;12278;53.058;9.028;2023-05-25T22:25:23;16.20;;;4.40;;
24102;SDS011;12278;53.058;9.028;2023-05-25T22:29:30;18.20;;;4.40;;
24102;SDS011;12278;53.058;9.028;2023-05-25T22:33:31;18.20;;;5.00;;
24102;SDS011;12278;53.058;9.028;2023-05-25T22:41:32;17.80;;;4.53;;
24102;SDS011;12278;53.058;9.028;2023-05-25T22:45:32;25.90;;;5.95;;
24102;SDS011;12278;53.058;9.028;2023-05-25T22:49:34;12.70;;;3.95;;
24102;SDS011;12278;53.058;9.028;2023-05-25T22:53:38;16.52;;;5.25;;
24102;SDS011;12278;53.058;9.028;2023-05-25T22:57:39;13.50;;;5.00;;
24102;SDS011;12278;53.058;9.028;2023-05-25T23:13:41;20.13;;;4.47;;
24102;SDS011;12278;53.058;9.028;2023-05-25T23:17:41;14.18;;;5.85;;
24102;SDS011;12278;53.058;9.028;2023-05-25T23:21:43;20.90;;;6.63;;
24102;SDS011;12278;53.058;9.028;2023-05-25T23:25:44;20.58;;;5.35;;
24102;SDS011;12278;53.058;9.028;2023-05-25T23:29:44;16.15;;;5.20;;
24102;SDS011;12278;53.058;9.028;2023-05-25T23:33:45;14.25;;;4.47;;
24102;SDS011;12278;53.058;9.028;2023-05-25T23:37:46;13.20;;;4.70;;
24102;SDS011;12278;53.058;9.028;2023-05-25T23:41:46;17.05;;;6.57;;
24102;SDS011;12278;53.058;9.028;2023-05-25T23:45:53;16.08;;;5.40;;
24102;SDS011;12278;53.058;9.028;2023-05-25T23:49:53;15.90;;;5.07;;
24102;SDS011;12278;53.058;9.028;2023-05-25T23:53:54;16.77;;;5.93;;
24102;SDS011;12278;53.058;9.028;2023-05-25T23:57:55;16.67;;;4.97;;
